sensor_id;sensor_type;location;lat;lon;timestamp;P1;durP1;ratioP1;P2;durP2;ratioP2
8113;SDS011;4099;52.684;9.918;2023-04-30T00:01:13;5.63;;;3.43;;
8113;SDS011;4099;52.684;9.918;2023-04-30T00:06:15;10.03;;;3.67;;
8113;SDS011;4099;52.684;9.918;2023-04-30T00:11:18;8.33;;;3.83;;
8113;SDS011;4099;52.684;9.918;2023-04-30T00:16:20;4.60;;;3.50;;
8113;SDS011;4099;52.684;9.918;2023-04-30T00:21:21;6.53;;;4.33;;
8113;SDS011;4099;52.684;9.918;2023-04-30T00:26:24;5.60;;;4.23;;
8113;SDS011;4099;52.684;9.918;2023-04-30T00:31:27;6.07;;;4.03;;
8113;SDS011;4099;52.684;9.918;2023-04-30T00:36:29;10.67;;;4.70;;
8113;SDS011;4099;52.684;9.918;2023-04-30T00:41:33;5.53;;;3.80;;
8113;SDS011;4099;52.684;9.918;2023-04-30T00:46:35;7.40;;;4.40;;
8113;SDS011;4099;52.684;9.918;2023-04-30T00:51:37;7.00;;;3.90;;
8113;SDS011;4099;52.684;9.918;2023-04-30T00:56:42;6.37;;;4.17;;
8113;SDS011;4099;52.684;9.918;2023-04-30T01:01:46;6.27;;;4.10;;
8113;SDS011;4099;52.684;9.918;2023-04-30T01:06:47;5.83;;;3.93;;
8113;SDS011;4099;52.684;9.918;2023-04-30T01:11:54;5.67;;;3.77;;
8113;SDS011;4099;52.684;9.918;2023-04-30T01:17:02;5.70;;;3.40;;
8113;SDS011;4099;52.684;9.918;2023-04-30T01:22:09;6.73;;;3.50;;
8113;SDS011;4099;52.684;9.918;2023-04-30T01:27:21;5.30;;;3.73;;
8113;SDS011;4099;52.684;9.918;2023-04-30T01:32:31;6.60;;;3.63;;
8113;SDS011;4099;52.684;9.918;2023-04-30T01:37:35;9.83;;;3.17;;
8113;SDS011;4099;52.684;9.918;2023-04-30T01:42:46;5.53;;;3.67;;
8113;SDS011;4099;52.684;9.918;2023-04-30T01:48:06;5.47;;;3.33;;
8113;SDS011;4099;52.684;9.918;2023-04-30T01:53:19;6.47;;;3.27;;
8113;SDS011;4099;52.684;9.918;2023-04-30T01:58:23;5.97;;;3.50;;
8113;SDS011;4099;52.684;9.918;2023-04-30T02:03:29;6.73;;;3.10;;
8113;SDS011;4099;52.684;9.918;2023-04-30T02:08:32;3.90;;;3.30;;
8113;SDS011;4099;52.684;9.918;2023-04-30T02:13:34;6.50;;;3.50;;
8113;SDS011;4099;52.684;9.918;2023-04-30T02:18:37;4.17;;;3.03;;
8113;SDS011;4099;52.684;9.918;2023-04-30T02:23:39;6.40;;;3.63;;
8113;SDS011;4099;52.684;9.918;2023-04-30T02:28:42;6.50;;;3.30;;
8113;SDS011;4099;52.684;9.918;2023-04-30T02:33:45;5.57;;;3.60;;
8113;SDS011;4099;52.684;9.918;2023-04-30T02:38:47;6.57;;;3.80;;
8113;SDS011;4099;52.684;9.918;2023-04-30T02:43:49;4.93;;;4.00;;
8113;SDS011;4099;52.684;9.918;2023-04-30T02:48:52;8.67;;;4.20;;
8113;SDS011;4099;52.684;9.918;2023-04-30T02:53:54;8.67;;;4.27;;
8113;SDS011;4099;52.684;9.918;2023-04-30T02:58:55;7.27;;;4.67;;
8113;SDS011;4099;52.684;9.918;2023-04-30T03:03:59;7.03;;;4.40;;
8113;SDS011;4099;52.684;9.918;2023-04-30T03:09:02;7.77;;;4.57;;
8113;SDS011;4099;52.684;9.918;2023-04-30T03:14:04;7.53;;;4.87;;
8113;SDS011;4099;52.684;9.918;2023-04-30T03:19:07;8.77;;;4.23;;
8113;SDS011;4099;52.684;9.918;2023-04-30T03:24:09;6.67;;;4.30;;
8113;SDS011;4099;52.684;9.918;2023-04-30T03:29:11;7.43;;;4.50;;
8113;SDS011;4099;52.684;9.918;2023-04-30T03:34:14;7.67;;;4.40;;
8113;SDS011;4099;52.684;9.918;2023-04-30T03:39:16;8.03;;;4.60;;
8113;SDS011;4099;52.684;9.918;2023-04-30T03:44:18;5.77;;;4.50;;
8113;SDS011;4099;52.684;9.918;2023-04-30T03:49:21;6.17;;;4.23;;
8113;SDS011;4099;52.684;9.918;2023-04-30T03:54:23;4.57;;;4.00;;
8113;SDS011;4099;52.684;9.918;2023-04-30T03:59:25;4.37;;;3.50;;
8113;SDS011;4099;52.684;9.918;2023-04-30T04:04:28;6.43;;;4.10;;
8113;SDS011;4099;52.684;9.918;2023-04-30T04:09:30;8.17;;;4.70;;
8113;SDS011;4099;52.684;9.918;2023-04-30T04:14:32;7.47;;;4.70;;
8113;SDS011;4099;52.684;9.918;2023-04-30T04:19:36;6.20;;;4.37;;
8113;SDS011;4099;52.684;9.918;2023-04-30T04:24:38;12.37;;;4.83;;
8113;SDS011;4099;52.684;9.918;2023-04-30T04:29:40;7.27;;;4.63;;
8113;SDS011;4099;52.684;9.918;2023-04-30T04:34:43;8.43;;;4.50;;
8113;SDS011;4099;52.684;9.918;2023-04-30T04:39:45;7.40;;;4.60;;
8113;SDS011;4099;52.684;9.918;2023-04-30T04:44:47;6.20;;;4.10;;
8113;SDS011;4099;52.684;9.918;2023-04-30T04:49:52;7.80;;;5.23;;
8113;SDS011;4099;52.684;9.918;2023-04-30T04:54:53;7.00;;;4.73;;
8113;SDS011;4099;52.684;9.918;2023-04-30T04:59:55;8.93;;;5.57;;
8113;SDS011;4099;52.684;9.918;2023-04-30T05:04:59;8.70;;;5.10;;
8113;SDS011;4099;52.684;9.918;2023-04-30T05:10:01;8.73;;;5.13;;
8113;SDS011;4099;52.684;9.918;2023-04-30T05:15:04;7.57;;;5.17;;
8113;SDS011;4099;52.684;9.918;2023-04-30T05:20:08;5.97;;;5.20;;
8113;SDS011;4099;52.684;9.918;2023-04-30T05:25:11;12.10;;;6.63;;
8113;SDS011;4099;52.684;9.918;2023-04-30T05:30:13;12.40;;;8.63;;
8113;SDS011;4099;52.684;9.918;2023-04-30T05:35:17;8.07;;;6.20;;
8113;SDS011;4099;52.684;9.918;2023-04-30T05:40:19;14.57;;;7.30;;
8113;SDS011;4099;52.684;9.918;2023-04-30T05:45:21;7.90;;;6.00;;
8113;SDS011;4099;52.684;9.918;2023-04-30T05:50:24;10.70;;;6.07;;
8113;SDS011;4099;52.684;9.918;2023-04-30T05:55:25;9.37;;;6.00;;
8113;SDS011;4099;52.684;9.918;2023-04-30T06:00:27;8.53;;;5.63;;
8113;SDS011;4099;52.684;9.918;2023-04-30T06:05:30;9.70;;;5.80;;
8113;SDS011;4099;52.684;9.918;2023-04-30T06:10:32;10.93;;;5.87;;
8113;SDS011;4099;52.684;9.918;2023-04-30T06:15:34;7.63;;;5.17;;
8113;SDS011;4099;52.684;9.918;2023-04-30T06:20:37;11.00;;;4.43;;
8113;SDS011;4099;52.684;9.918;2023-04-30T06:25:39;6.23;;;4.40;;
8113;SDS011;4099;52.684;9.918;2023-04-30T06:30:40;6.33;;;3.77;;
8113;SDS011;4099;52.684;9.918;2023-04-30T06:35:45;9.60;;;3.97;;
8113;SDS011;4099;52.684;9.918;2023-04-30T06:40:47;7.23;;;3.67;;
8113;SDS011;4099;52.684;9.918;2023-04-30T06:45:50;8.77;;;3.60;;
8113;SDS011;4099;52.684;9.918;2023-04-30T06:50:53;7.37;;;3.00;;
8113;SDS011;4099;52.684;9.918;2023-04-30T06:55:55;5.33;;;3.17;;
8113;SDS011;4099;52.684;9.918;2023-04-30T07:00:57;6.33;;;3.30;;
8113;SDS011;4099;52.684;9.918;2023-04-30T07:06:00;6.87;;;3.93;;
8113;SDS011;4099;52.684;9.918;2023-04-30T07:11:02;8.47;;;3.50;;
8113;SDS011;4099;52.684;9.918;2023-04-30T07:16:05;8.33;;;3.27;;
8113;SDS011;4099;52.684;9.918;2023-04-30T07:21:10;8.07;;;3.30;;
8113;SDS011;4099;52.684;9.918;2023-04-30T07:26:12;13.33;;;4.30;;
8113;SDS011;4099;52.684;9.918;2023-04-30T07:31:13;6.27;;;2.73;;
8113;SDS011;4099;52.684;9.918;2023-04-30T07:36:16;7.27;;;3.30;;
8113;SDS011;4099;52.684;9.918;2023-04-30T07:41:18;5.60;;;2.90;;
8113;SDS011;4099;52.684;9.918;2023-04-30T07:46:21;5.70;;;3.27;;
8113;SDS011;4099;52.684;9.918;2023-04-30T07:51:25;9.27;;;4.90;;
8113;SDS011;4099;52.684;9.918;2023-04-30T07:56:28;8.97;;;3.70;;
8113;SDS011;4099;52.684;9.918;2023-04-30T08:01:29;6.57;;;3.47;;
8113;SDS011;4099;52.684;9.918;2023-04-30T08:06:33;8.07;;;3.30;;
8113;SDS011;4099;52.684;9.918;2023-04-30T08:11:37;9.17;;;3.30;;
8113;SDS011;4099;52.684;9.918;2023-04-30T08:16:39;6.67;;;3.67;;
8113;SDS011;4099;52.684;9.918;2023-04-30T08:21:42;9.20;;;3.40;;
8113;SDS011;4099;52.684;9.918;2023-04-30T08:26:44;8.17;;;3.70;;
8113;SDS011;4099;52.684;9.918;2023-04-30T08:31:46;7.90;;;3.77;;
8113;SDS011;4099;52.684;9.918;2023-04-30T08:36:49;7.90;;;3.57;;
8113;SDS011;4099;52.684;9.918;2023-04-30T08:41:52;5.83;;;3.20;;
8113;SDS011;4099;52.684;9.918;2023-04-30T08:46:56;6.90;;;3.40;;
8113;SDS011;4099;52.684;9.918;2023-04-30T08:52:01;6.33;;;2.97;;
8113;SDS011;4099;52.684;9.918;2023-04-30T08:57:03;5.70;;;3.00;;
8113;SDS011;4099;52.684;9.918;2023-04-30T09:02:06;8.57;;;3.20;;
8113;SDS011;4099;52.684;9.918;2023-04-30T09:07:10;7.40;;;3.17;;
8113;SDS011;4099;52.684;9.918;2023-04-30T09:12:14;3.43;;;2.83;;
8113;SDS011;4099;52.684;9.918;2023-04-30T09:17:20;9.17;;;3.03;;
8113;SDS011;4099;52.684;9.918;2023-04-30T09:22:23;7.87;;;3.40;;
8113;SDS011;4099;52.684;9.918;2023-04-30T09:27:25;5.20;;;3.20;;
8113;SDS011;4099;52.684;9.918;2023-04-30T09:32:27;5.17;;;3.50;;
8113;SDS011;4099;52.684;9.918;2023-04-30T09:37:36;5.63;;;3.17;;
8113;SDS011;4099;52.684;9.918;2023-04-30T09:42:39;6.50;;;3.17;;
8113;SDS011;4099;52.684;9.918;2023-04-30T09:47:59;6.93;;;3.30;;
8113;SDS011;4099;52.684;9.918;2023-04-30T09:53:05;4.77;;;2.87;;
8113;SDS011;4099;52.684;9.918;2023-04-30T09:58:09;5.40;;;3.23;;
8113;SDS011;4099;52.684;9.918;2023-04-30T10:03:12;6.17;;;3.17;;
8113;SDS011;4099;52.684;9.918;2023-04-30T10:08:18;6.17;;;3.40;;
8113;SDS011;4099;52.684;9.918;2023-04-30T10:13:25;5.80;;;2.97;;
8113;SDS011;4099;52.684;9.918;2023-04-30T10:18:32;7.70;;;3.27;;
8113;SDS011;4099;52.684;9.918;2023-04-30T10:23:38;5.20;;;3.30;;
8113;SDS011;4099;52.684;9.918;2023-04-30T10:28:43;6.17;;;3.07;;
8113;SDS011;4099;52.684;9.918;2023-04-30T10:33:48;4.93;;;3.10;;
8113;SDS011;4099;52.684;9.918;2023-04-30T10:38:59;4.90;;;2.63;;
8113;SDS011;4099;52.684;9.918;2023-04-30T10:44:02;4.87;;;2.87;;
8113;SDS011;4099;52.684;9.918;2023-04-30T10:49:05;6.40;;;3.07;;
8113;SDS011;4099;52.684;9.918;2023-04-30T10:54:09;5.13;;;3.30;;
8113;SDS011;4099;52.684;9.918;2023-04-30T10:59:11;6.23;;;3.23;;
8113;SDS011;4099;52.684;9.918;2023-04-30T11:04:13;5.60;;;3.20;;
8113;SDS011;4099;52.684;9.918;2023-04-30T11:09:16;9.90;;;7.50;;
8113;SDS011;4099;52.684;9.918;2023-04-30T11:14:19;7.07;;;3.00;;
8113;SDS011;4099;52.684;9.918;2023-04-30T11:19:22;7.97;;;2.83;;
8113;SDS011;4099;52.684;9.918;2023-04-30T11:47:22;4.00;;;2.83;;
8113;SDS011;4099;52.684;9.918;2023-04-30T11:52:24;5.97;;;3.50;;
8113;SDS011;4099;52.684;9.918;2023-04-30T11:57:26;7.97;;;3.13;;
8113;SDS011;4099;52.684;9.918;2023-04-30T12:02:37;6.40;;;2.90;;
8113;SDS011;4099;52.684;9.918;2023-04-30T12:07:39;5.97;;;3.50;;
8113;SDS011;4099;52.684;9.918;2023-04-30T12:12:46;5.80;;;3.30;;
8113;SDS011;4099;52.684;9.918;2023-04-30T12:17:53;4.90;;;2.90;;
8113;SDS011;4099;52.684;9.918;2023-04-30T12:22:56;5.17;;;3.27;;
8113;SDS011;4099;52.684;9.918;2023-04-30T12:27:58;5.33;;;3.07;;
8113;SDS011;4099;52.684;9.918;2023-04-30T12:33:02;4.20;;;2.80;;
8113;SDS011;4099;52.684;9.918;2023-04-30T12:38:06;6.57;;;4.30;;
8113;SDS011;4099;52.684;9.918;2023-04-30T12:43:08;5.23;;;2.90;;
8113;SDS011;4099;52.684;9.918;2023-04-30T12:48:11;5.50;;;3.30;;
8113;SDS011;4099;52.684;9.918;2023-04-30T12:53:15;4.07;;;3.10;;
8113;SDS011;4099;52.684;9.918;2023-04-30T12:58:17;5.33;;;3.60;;
8113;SDS011;4099;52.684;9.918;2023-04-30T13:03:20;7.30;;;3.07;;
8113;SDS011;4099;52.684;9.918;2023-04-30T13:08:22;6.07;;;2.93;;
8113;SDS011;4099;52.684;9.918;2023-04-30T13:13:24;5.50;;;2.83;;
8113;SDS011;4099;52.684;9.918;2023-04-30T13:18:28;4.47;;;2.60;;
8113;SDS011;4099;52.684;9.918;2023-04-30T13:23:30;5.70;;;2.37;;
8113;SDS011;4099;52.684;9.918;2023-04-30T13:28:31;4.43;;;2.60;;
8113;SDS011;4099;52.684;9.918;2023-04-30T13:33:34;5.70;;;2.70;;
8113;SDS011;4099;52.684;9.918;2023-04-30T13:38:36;4.37;;;2.60;;
8113;SDS011;4099;52.684;9.918;2023-04-30T13:43:38;4.57;;;2.67;;
8113;SDS011;4099;52.684;9.918;2023-04-30T13:48:42;6.10;;;2.80;;
8113;SDS011;4099;52.684;9.918;2023-04-30T13:53:47;6.70;;;2.63;;
8113;SDS011;4099;52.684;9.918;2023-04-30T13:58:48;4.13;;;2.57;;
8113;SDS011;4099;52.684;9.918;2023-04-30T14:03:52;4.10;;;2.60;;
8113;SDS011;4099;52.684;9.918;2023-04-30T14:08:53;6.60;;;2.80;;
8113;SDS011;4099;52.684;9.918;2023-04-30T14:13:55;4.03;;;2.77;;
8113;SDS011;4099;52.684;9.918;2023-04-30T14:18:58;2.87;;;2.57;;
8113;SDS011;4099;52.684;9.918;2023-04-30T14:24:00;3.60;;;2.37;;
8113;SDS011;4099;52.684;9.918;2023-04-30T14:29:02;4.30;;;2.67;;
8113;SDS011;4099;52.684;9.918;2023-04-30T14:34:05;4.33;;;2.50;;
8113;SDS011;4099;52.684;9.918;2023-04-30T14:39:07;2.93;;;2.20;;
8113;SDS011;4099;52.684;9.918;2023-04-30T14:44:12;3.23;;;2.50;;
8113;SDS011;4099;52.684;9.918;2023-04-30T14:49:15;4.73;;;2.70;;
8113;SDS011;4099;52.684;9.918;2023-04-30T14:54:17;5.83;;;2.60;;
8113;SDS011;4099;52.684;9.918;2023-04-30T14:59:19;4.47;;;2.47;;
8113;SDS011;4099;52.684;9.918;2023-04-30T15:04:22;4.00;;;2.50;;
8113;SDS011;4099;52.684;9.918;2023-04-30T15:09:24;3.40;;;2.20;;
8113;SDS011;4099;52.684;9.918;2023-04-30T15:14:25;4.60;;;2.70;;
8113;SDS011;4099;52.684;9.918;2023-04-30T15:19:29;16.10;;;12.87;;
8113;SDS011;4099;52.684;9.918;2023-04-30T15:24:31;3.87;;;3.30;;
8113;SDS011;4099;52.684;9.918;2023-04-30T15:29:38;13.03;;;11.30;;
8113;SDS011;4099;52.684;9.918;2023-04-30T15:40:13;10.13;;;9.13;;
8113;SDS011;4099;52.684;9.918;2023-04-30T15:45:29;8.13;;;7.33;;
8113;SDS011;4099;52.684;9.918;2023-04-30T15:50:37;6.60;;;5.90;;
8113;SDS011;4099;52.684;9.918;2023-04-30T15:55:50;4.33;;;2.50;;
8113;SDS011;4099;52.684;9.918;2023-04-30T16:01:00;4.20;;;2.30;;
8113;SDS011;4099;52.684;9.918;2023-04-30T16:06:19;4.40;;;2.70;;
8113;SDS011;4099;52.684;9.918;2023-04-30T16:11:29;4.43;;;2.60;;
8113;SDS011;4099;52.684;9.918;2023-04-30T16:16:37;4.17;;;1.97;;
8113;SDS011;4099;52.684;9.918;2023-04-30T16:21:51;3.23;;;1.80;;
8113;SDS011;4099;52.684;9.918;2023-04-30T16:27:07;5.53;;;2.23;;
8113;SDS011;4099;52.684;9.918;2023-04-30T16:33:52;4.53;;;2.13;;
8113;SDS011;4099;52.684;9.918;2023-04-30T16:38:39;4.73;;;2.30;;
8113;SDS011;4099;52.684;9.918;2023-04-30T16:44:26;2.10;;;1.83;;
8113;SDS011;4099;52.684;9.918;2023-04-30T16:49:46;3.70;;;2.10;;
8113;SDS011;4099;52.684;9.918;2023-04-30T16:55:26;3.40;;;2.10;;
8113;SDS011;4099;52.684;9.918;2023-04-30T17:00:45;3.43;;;2.10;;
8113;SDS011;4099;52.684;9.918;2023-04-30T17:06:21;3.33;;;2.10;;
8113;SDS011;4099;52.684;9.918;2023-04-30T17:22:47;4.60;;;2.33;;
8113;SDS011;4099;52.684;9.918;2023-04-30T17:28:14;3.43;;;2.40;;
8113;SDS011;4099;52.684;9.918;2023-04-30T17:45:38;4.00;;;2.30;;
8113;SDS011;4099;52.684;9.918;2023-04-30T17:51:06;3.90;;;2.37;;
8113;SDS011;4099;52.684;9.918;2023-04-30T17:56:18;2.97;;;2.27;;
8113;SDS011;4099;52.684;9.918;2023-04-30T18:06:54;2.80;;;2.43;;
8113;SDS011;4099;52.684;9.918;2023-04-30T18:12:08;3.97;;;2.17;;
8113;SDS011;4099;52.684;9.918;2023-04-30T18:17:29;3.93;;;2.33;;
8113;SDS011;4099;52.684;9.918;2023-04-30T18:22:57;3.23;;;2.60;;
8113;SDS011;4099;52.684;9.918;2023-04-30T18:28:03;4.20;;;2.50;;
8113;SDS011;4099;52.684;9.918;2023-04-30T18:33:19;5.77;;;3.27;;
8113;SDS011;4099;52.684;9.918;2023-04-30T18:38:33;8.37;;;6.33;;
8113;SDS011;4099;52.684;9.918;2023-04-30T18:44:15;8.63;;;6.67;;
8113;SDS011;4099;52.684;9.918;2023-04-30T18:50:01;7.43;;;6.37;;
8113;SDS011;4099;52.684;9.918;2023-04-30T18:55:25;7.10;;;5.60;;
8113;SDS011;4099;52.684;9.918;2023-04-30T19:00:42;6.10;;;5.10;;
8113;SDS011;4099;52.684;9.918;2023-04-30T19:06:08;5.97;;;4.60;;
8113;SDS011;4099;52.684;9.918;2023-04-30T19:11:20;6.83;;;4.70;;
8113;SDS011;4099;52.684;9.918;2023-04-30T19:16:29;5.77;;;3.80;;
8113;SDS011;4099;52.684;9.918;2023-04-30T19:27:07;8.87;;;5.20;;
8113;SDS011;4099;52.684;9.918;2023-04-30T19:32:20;6.60;;;4.80;;
8113;SDS011;4099;52.684;9.918;2023-04-30T19:37:32;6.83;;;5.00;;
8113;SDS011;4099;52.684;9.918;2023-04-30T19:42:43;9.67;;;5.47;;
8113;SDS011;4099;52.684;9.918;2023-04-30T19:47:53;20.33;;;11.43;;
8113;SDS011;4099;52.684;9.918;2023-04-30T19:52:59;12.17;;;8.30;;
8113;SDS011;4099;52.684;9.918;2023-04-30T19:58:13;13.23;;;7.80;;
8113;SDS011;4099;52.684;9.918;2023-04-30T20:03:22;10.90;;;6.77;;
8113;SDS011;4099;52.684;9.918;2023-04-30T20:08:30;6.57;;;4.70;;
8113;SDS011;4099;52.684;9.918;2023-04-30T20:13:45;5.43;;;4.20;;
8113;SDS011;4099;52.684;9.918;2023-04-30T20:18:52;4.80;;;4.07;;
8113;SDS011;4099;52.684;9.918;2023-04-30T20:24:09;5.73;;;4.07;;
8113;SDS011;4099;52.684;9.918;2023-04-30T20:29:28;6.60;;;3.60;;
8113;SDS011;4099;52.684;9.918;2023-04-30T20:34:45;7.57;;;3.80;;
8113;SDS011;4099;52.684;9.918;2023-04-30T20:45:42;8.33;;;5.00;;
8113;SDS011;4099;52.684;9.918;2023-04-30T20:51:17;7.70;;;5.87;;
8113;SDS011;4099;52.684;9.918;2023-04-30T20:56:33;14.43;;;8.37;;
8113;SDS011;4099;52.684;9.918;2023-04-30T21:01:40;14.23;;;8.70;;
8113;SDS011;4099;52.684;9.918;2023-04-30T21:06:56;17.17;;;9.70;;
8113;SDS011;4099;52.684;9.918;2023-04-30T21:12:08;15.43;;;9.47;;
8113;SDS011;4099;52.684;9.918;2023-04-30T21:17:22;14.47;;;9.50;;
8113;SDS011;4099;52.684;9.918;2023-04-30T21:22:39;11.97;;;8.57;;
8113;SDS011;4099;52.684;9.918;2023-04-30T21:27:47;11.70;;;7.97;;
8113;SDS011;4099;52.684;9.918;2023-04-30T21:33:03;12.77;;;9.13;;
8113;SDS011;4099;52.684;9.918;2023-04-30T21:38:07;17.40;;;10.03;;
8113;SDS011;4099;52.684;9.918;2023-04-30T21:43:22;11.53;;;7.03;;
8113;SDS011;4099;52.684;9.918;2023-04-30T21:48:34;9.83;;;6.30;;
8113;SDS011;4099;52.684;9.918;2023-04-30T21:53:42;7.80;;;4.90;;
8113;SDS011;4099;52.684;9.918;2023-04-30T21:59:08;7.17;;;4.50;;
8113;SDS011;4099;52.684;9.918;2023-04-30T22:04:15;5.30;;;4.00;;
8113;SDS011;4099;52.684;9.918;2023-04-30T22:09:27;8.27;;;4.40;;
8113;SDS011;4099;52.684;9.918;2023-04-30T22:14:39;8.60;;;4.60;;
8113;SDS011;4099;52.684;9.918;2023-04-30T22:19:45;5.90;;;4.27;;
8113;SDS011;4099;52.684;9.918;2023-04-30T22:24:49;5.63;;;3.97;;
8113;SDS011;4099;52.684;9.918;2023-04-30T22:30:07;6.10;;;4.37;;
8113;SDS011;4099;52.684;9.918;2023-04-30T22:35:12;6.53;;;3.83;;
8113;SDS011;4099;52.684;9.918;2023-04-30T22:40:19;7.10;;;4.47;;
8113;SDS011;4099;52.684;9.918;2023-04-30T22:45:25;10.77;;;5.07;;
8113;SDS011;4099;52.684;9.918;2023-04-30T22:50:29;7.17;;;5.30;;
8113;SDS011;4099;52.684;9.918;2023-04-30T22:55:37;7.60;;;5.00;;
8113;SDS011;4099;52.684;9.918;2023-04-30T23:00:46;5.93;;;4.80;;
8113;SDS011;4099;52.684;9.918;2023-04-30T23:05:51;7.43;;;4.50;;
8113;SDS011;4099;52.684;9.918;2023-04-30T23:11:03;7.40;;;4.80;;
8113;SDS011;4099;52.684;9.918;2023-04-30T23:16:13;7.50;;;4.80;;
8113;SDS011;4099;52.684;9.918;2023-04-30T23:21:38;6.93;;;4.97;;
8113;SDS011;4099;52.684;9.918;2023-04-30T23:26:41;7.20;;;4.87;;
8113;SDS011;4099;52.684;9.918;2023-04-30T23:31:57;6.80;;;5.10;;
8113;SDS011;4099;52.684;9.918;2023-04-30T23:37:06;6.43;;;5.03;;
8113;SDS011;4099;52.684;9.918;2023-04-30T23:42:23;7.13;;;5.27;;
8113;SDS011;4099;52.684;9.918;2023-04-30T23:47:32;7.37;;;5.10;;
8113;SDS011;4099;52.684;9.918;2023-04-30T23:52:39;5.10;;;4.60;;
8113;SDS011;4099;52.684;9.918;2023-04-30T23:58:04;6.50;;;4.77;;
